Time;durP1;ratioP1;P1;durP2;ratioP2;P2;SDS_P1;SDS_P2;PMS_P1;PMS_P2;Temp;Humidity;BMP_temperature;BMP_pressure;BME280_temperature;BME280_humidity;BME280_pressure;Samples;Min_cycle;Max_cycle;Signal;HPM_P1;HPM_P2
2023/02/18 10:41:29;;;;;;;15.00;5.80;;;;;;;-0.71;60.42;98625.03;5096683;27;20975;-55
2023/02/18 10:43:58;;;;;;;8.55;4.30;;;;;;;-0.68;61.66;98621.66;5089588;28;20534;-50
2023/02/18 10:47:14;;;;;;;10.57;5.03;;;;;;;-0.39;62.17;98604.41;5072963;28;20058;-50
2023/02/18 10:50:02;;;;;;;9.13;4.65;;;;;;;-0.22;62.08;98611.91;5033251;28;20134;-49
2023/02/18 10:52:34;;;;;;;9.55;4.47;;;;;;;-0.42;61.88;98615.47;5087501;28;20136;-51
2023/02/18 10:55:04;;;;;;;12.85;4.40;;;;;;;-0.61;61.92;98606.25;5067138;28;20036;-50
2023/02/18 10:57:31;;;;;;;11.77;6.30;;;;;;;-0.72;61.72;98594.44;5068661;28;20043;-54
2023/02/18 11:00:17;;;;;;;10.63;5.60;;;;;;;-0.46;61.63;98595.94;5084757;28;20504;-51
2023/02/18 11:02:44;;;;;;;10.55;5.40;;;;;;;-0.53;60.51;98590.91;5058104;28;20463;-51
2023/02/18 11:05:22;;;;;;;16.83;5.03;;;;;;;0.36;59.56;98587.50;5093975;28;20515;-50
2023/02/18 11:07:50;;;;;;;12.30;5.75;;;;;;;1.14;58.50;98581.38;5071770;28;20457;-51
2023/02/18 11:10:21;;;;;;;12.65;6.15;;;;;;;2.47;56.69;98585.91;5086280;28;20423;-51
2023/02/18 11:12:50;;;;;;;10.93;5.65;;;;;;;2.86;53.68;98571.44;5078571;28;20040;-49
2023/02/18 11:15:22;;;;;;;17.23;8.27;;;;;;;3.29;53.64;98569.63;5083785;28;20043;-53
2023/02/18 11:17:54;;;;;;;18.13;8.70;;;;;;;4.61;50.14;98557.59;5082393;28;20114;-53
2023/02/18 11:20:31;;;;;;;21.10;8.65;;;;;;;5.03;49.02;98556.34;5087251;28;20036;-54
2023/02/18 11:23:05;;;;;;;19.48;8.68;;;;;;;5.05;48.42;98556.31;5084160;28;20044;-59
2023/02/18 11:25:33;;;;;;;11.05;6.70;;;;;;;4.24;48.69;98558.63;5080346;28;20041;-57
2023/02/18 11:28:26;;;;;;;12.27;6.32;;;;;;;3.63;49.72;98555.94;5084312;28;20032;-58
2023/02/18 11:30:59;;;;;;;14.20;7.28;;;;;;;3.28;49.81;98551.66;5071885;28;20048;-63
2023/02/18 11:33:24;;;;;;;11.02;6.25;;;;;;;3.07;50.34;98547.88;5079643;28;20553;-59
2023/02/18 11:35:56;;;;;;;10.90;6.32;;;;;;;3.13;49.77;98546.88;5084882;28;20044;-62
2023/02/18 11:38:36;;;;;;;12.27;6.75;;;;;;;3.61;49.61;98532.03;5067238;28;20036;-61
2023/02/18 11:41:32;;;;;;;13.02;6.88;;;;;;;3.54;48.97;98527.91;5085511;28;20569;-63
2023/02/18 11:43:58;;;;;;;11.35;6.70;;;;;;;2.69;49.49;98466.59;5096596;28;20056;-55
2023/02/18 11:46:26;;;;;;;12.20;6.30;;;;;;;2.70;49.74;98521.31;5083011;28;20039;-63
2023/02/18 11:48:52;;;;;;;14.52;6.88;;;;;;;3.14;49.21;98516.00;5083632;28;20083;-56
2023/02/18 11:51:35;;;;;;;16.98;6.60;;;;;;;3.98;48.29;98508.81;5077342;28;20056;-62
2023/02/18 11:54:24;;;;;;;13.70;6.03;;;;;;;4.75;46.87;98501.44;5070217;28;20545;-65
2023/02/18 11:57:10;;;;;;;9.53;5.60;;;;;;;5.02;46.76;98502.34;5071256;28;20131;-57
2023/02/18 11:59:38;;;;;;;10.80;6.20;;;;;;;4.94;45.68;98483.69;5071332;28;20059;-60
2023/02/18 12:02:10;;;;;;;11.00;6.32;;;;;;;4.06;46.16;98487.13;5064998;28;20048;-57
2023/02/18 15:44:34;;;;;;;5.45;2.72;;;;;;;-4.95;69.48;98300.78;5063430;28;20390;-59
2023/02/18 15:47:06;;;;;;;4.95;3.25;;;;;;;-4.93;70.53;98287.28;5044173;28;20063;-54
2023/02/18 15:49:32;;;;;;;7.72;3.45;;;;;;;-4.85;71.66;98279.72;5049120;28;20128;-39
2023/02/18 15:51:59;;;;;;;6.15;3.28;;;;;;;-4.74;72.44;98278.91;5040669;28;20103;-36
2023/02/18 15:54:26;;;;;;;19.85;4.55;;;;;;;-4.82;72.28;98257.78;5037514;28;20041;-38
2023/02/18 15:56:54;;;;;;;11.60;4.70;;;;;;;-4.55;71.96;98274.72;5063952;28;20504;-52
2023/02/18 15:59:27;;;;;;;12.37;6.17;;;;;;;-4.57;72.38;98248.53;5062080;28;20041;-40
2023/02/18 16:01:55;;;;;;;11.80;5.38;;;;;;;-4.29;71.82;98268.03;5061097;28;20294;-42
2023/02/18 16:04:22;;;;;;;11.57;5.43;;;;;;;-4.23;71.81;98267.19;5060867;28;20119;-40
2023/02/18 16:06:53;;;;;;;11.00;5.07;;;;;;;-4.22;71.55;98257.88;5060822;28;20082;-41
2023/02/18 16:09:23;;;;;;;10.80;5.00;;;;;;;-4.06;71.10;98274.81;5044293;28;20114;-41
2023/02/18 16:11:59;;;;;;;12.90;5.45;;;;;;;-4.04;70.75;98257.94;5043639;28;20072;-41
2023/02/18 16:14:34;;;;;;;9.73;4.70;;;;;;;-4.00;70.52;98260.47;5043612;28;20040;-39
2023/02/18 16:17:22;;;;;;;7.15;3.80;;;;;;;-3.99;69.52;98266.38;5060728;28;20053;-40
2023/02/18 16:19:54;;;;;;;15.45;5.68;;;;;;;-4.42;69.61;98190.25;5048412;28;20803;-45
2023/02/18 16:22:34;;;;;;;16.88;6.70;;;;;;;-4.03;69.53;98254.53;5047282;28;20052;-40
2023/02/18 16:25:07;;;;;;;11.13;4.88;;;;;;;-3.99;69.13;98252.00;5060536;28;20109;-40
2023/02/18 16:27:46;;;;;;;9.30;4.50;;;;;;;-4.03;68.29;98254.53;5061674;28;20041;-44
2023/02/18 16:30:21;;;;;;;6.97;4.10;;;;;;;-3.97;69.11;98247.75;5046521;28;20049;-43
2023/02/18 16:32:47;;;;;;;13.55;5.47;;;;;;;-3.98;68.34;98245.25;5060860;28;20040;-42
2023/02/18 16:35:14;;;;;;;10.25;3.83;;;;;;;-3.97;68.28;98247.75;5059002;28;20064;-43
2023/02/18 16:37:41;;;;;;;9.65;4.57;;;;;;;-3.97;68.23;98234.22;5061009;28;20052;-63
2023/02/18 16:40:29;;;;;;;9.48;4.20;;;;;;;-3.92;68.00;98240.13;5061434;28;20094;-49
2023/02/18 16:42:58;;;;;;;8.88;3.88;;;;;;;-4.06;68.10;98212.25;5052799;28;20048;-57
2023/02/18 16:45:34;;;;;;;9.90;3.80;;;;;;;-3.97;67.69;98229.16;5042768;28;20632;-44
2023/02/18 16:48:36;;;;;;;10.27;4.78;;;;;;;-3.91;67.68;98247.75;5094298;27;20416;-45
2023/02/18 16:51:08;;;;;;;6.88;3.17;;;;;;;-3.91;67.53;98232.53;5095296;28;20130;-63
2023/02/18 16:53:34;;;;;;;12.65;4.63;;;;;;;-3.92;67.74;98217.28;5091647;28;20154;-44
2023/02/18 16:56:01;;;;;;;8.85;4.45;;;;;;;-3.84;67.55;98215.63;5090235;28;20142;-42
2023/02/18 16:58:28;;;;;;;10.63;4.68;;;;;;;-3.78;67.68;98223.22;5098289;28;20040;-41
2023/02/18 17:00:54;;;;;;;10.90;4.70;;;;;;;-3.77;67.87;98211.38;5100772;28;20088;-39
2023/02/18 17:03:20;;;;;;;10.27;4.90;;;;;;;-3.75;68.08;98202.91;5108908;28;20044;-41
2023/02/18 17:05:46;;;;;;;11.35;4.47;;;;;;;-3.75;67.88;98205.44;5101763;28;20039;-41
2023/02/18 17:08:21;;;;;;;12.52;5.30;;;;;;;-3.64;67.98;98210.50;5092001;28;20047;-42
2023/02/18 17:10:52;;;;;;;7.00;3.55;;;;;;;-3.67;67.44;98198.66;5082219;28;20074;-40
2023/02/18 17:13:21;;;;;;;10.82;4.95;;;;;;;-3.70;67.73;98249.44;5098872;28;20158;-40
2023/02/18 17:15:50;;;;;;;12.70;6.13;;;;;;;-3.81;67.64;98186.81;5081569;28;20036;-41
2023/02/18 17:18:16;;;;;;;12.45;6.35;;;;;;;-3.69;67.27;98194.44;5115045;27;20422;-39
2023/02/18 17:20:42;;;;;;;11.10;5.82;;;;;;;-4.04;67.52;98121.75;5094263;28;20047;-41
2023/02/18 17:23:14;;;;;;;8.38;4.05;;;;;;;-3.60;67.79;98195.25;5105270;28;20940;-39
2023/02/18 17:25:40;;;;;;;10.57;5.25;;;;;;;-3.62;67.84;98196.97;5098360;28;20036;-41
2023/02/18 17:28:06;;;;;;;11.63;5.43;;;;;;;-3.66;67.23;98184.25;5121857;28;20050;-41
2023/02/18 17:30:35;;;;;;;10.50;4.00;;;;;;;-3.70;67.06;98185.13;5053155;28;20079;-42
2023/02/18 17:33:02;;;;;;;13.73;5.93;;;;;;;-3.74;67.80;98169.06;5072360;28;20073;-41
2023/02/18 17:35:28;;;;;;;11.90;5.43;;;;;;;-3.72;67.87;98179.22;5101562;28;20039;-53
2023/02/18 17:37:54;;;;;;;11.25;5.18;;;;;;;-3.72;67.55;98176.69;5101862;28;20473;-59
2023/02/18 17:40:24;;;;;;;12.57;5.13;;;;;;;-3.74;67.86;98173.28;5095295;28;20074;-62
2023/02/18 17:42:50;;;;;;;8.68;4.38;;;;;;;-3.75;67.15;98174.97;5086383;28;20063;-63
2023/02/18 17:45:25;;;;;;;12.63;5.53;;;;;;;-3.76;67.43;98167.34;5066465;28;20089;-63
2023/02/18 17:47:51;;;;;;;10.48;4.93;;;;;;;-3.75;67.60;98171.59;5099280;28;20151;-61
2023/02/18 17:50:17;;;;;;;10.45;4.57;;;;;;;-3.82;67.26;98175.00;5085678;28;20127;-67
2023/02/18 17:52:43;;;;;;;11.60;5.03;;;;;;;-3.89;67.41;98179.25;5085153;28;20048;-64
2023/02/18 17:55:17;;;;;;;7.35;4.47;;;;;;;-3.89;67.32;98164.84;5103394;28;20089;-61
2023/02/18 17:57:46;;;;;;;8.55;4.50;;;;;;;-3.96;67.33;98164.84;5092074;28;20046;-61
2023/02/18 18:00:18;;;;;;;8.20;4.22;;;;;;;-3.93;67.63;98155.56;5111168;28;20047;-61
2023/02/18 18:02:44;;;;;;;22.33;9.15;;;;;;;-3.94;67.98;98156.41;5109720;28;20511;-63
2023/02/18 18:05:20;;;;;;;12.23;4.32;;;;;;;-3.91;67.73;98161.47;5077900;28;20076;-63
2023/02/18 18:07:47;;;;;;;9.68;4.03;;;;;;;-3.91;68.23;98165.69;5090289;28;20092;-62
2023/02/18 18:10:13;;;;;;;13.13;5.85;;;;;;;-3.93;67.78;98167.41;5084586;28;20097;-66
2023/02/18 18:12:39;;;;;;;8.73;4.68;;;;;;;-3.88;67.99;98160.63;5063651;28;20040;-63
2023/02/18 18:15:22;;;;;;;8.88;3.70;;;;;;;-3.87;67.83;98159.75;5071473;28;20085;-65
2023/02/18 18:17:48;;;;;;;11.73;4.63;;;;;;;-3.96;67.80;98149.63;5090859;28;20468;-59
2023/02/18 18:20:14;;;;;;;8.55;3.75;;;;;;;-3.93;67.46;98157.25;5078100;28;20035;-38
2023/02/18 18:22:40;;;;;;;11.35;4.95;;;;;;;-3.90;67.69;98149.63;5086644;28;20043;-39
2023/02/18 18:25:15;;;;;;;11.35;5.28;;;;;;;-3.89;67.97;98164.84;5081676;28;20044;-40
2023/02/18 18:27:41;;;;;;;7.53;4.00;;;;;;;-3.92;67.69;98142.00;5092690;28;20079;-41
2023/02/18 18:30:08;;;;;;;15.43;5.07;;;;;;;-4.34;67.64;98088.78;5084859;28;20070;-39
2023/02/18 18:32:34;;;;;;;9.77;5.13;;;;;;;-3.95;67.72;98153.88;5071907;28;20044;-41
2023/02/18 18:34:59;;;;;;;14.50;5.38;;;;;;;-3.97;68.05;98148.78;5052576;28;20527;-41
2023/02/18 18:37:25;;;;;;;9.65;5.15;;;;;;;-3.94;67.77;98147.94;5070257;28;20038;-45
2023/02/18 18:39:51;;;;;;;14.23;5.88;;;;;;;-3.91;67.82;98142.84;5061605;28;20560;-42
2023/02/18 18:42:17;;;;;;;11.40;5.53;;;;;;;-3.90;67.81;98136.94;5067804;28;20066;-40
2023/02/18 18:44:43;;;;;;;9.35;4.13;;;;;;;-3.93;67.74;98142.03;5076059;28;20587;-42
2023/02/18 18:47:09;;;;;;;10.98;5.57;;;;;;;-4.00;67.42;98131.03;5074485;28;20470;-37
2023/02/18 18:49:36;;;;;;;14.32;6.07;;;;;;;-3.99;67.92;98135.28;5074614;28;20561;-39
2023/02/18 18:52:03;;;;;;;13.05;6.10;;;;;;;-3.99;67.92;98127.66;5071146;28;20090;-38
2023/02/18 18:54:29;;;;;;;15.43;6.22;;;;;;;-4.25;67.85;98090.47;5110198;27;20110;-38
2023/02/18 18:56:55;;;;;;;13.15;5.57;;;;;;;-3.93;67.96;98119.19;5073794;28;20458;-36
2023/02/18 18:59:21;;;;;;;11.13;4.97;;;;;;;-3.90;68.03;98126.78;5069013;28;20186;-37
2023/02/18 19:01:46;;;;;;;12.52;5.25;;;;;;;-4.15;67.71;98098.06;5068817;28;20184;-36
2023/02/18 19:04:13;;;;;;;12.27;5.40;;;;;;;-4.01;67.79;98121.72;5056767;28;20040;-37
2023/02/18 19:06:39;;;;;;;10.90;4.55;;;;;;;-4.00;67.98;98125.09;5057329;28;20044;-36
2023/02/18 19:09:05;;;;;;;16.38;6.55;;;;;;;-4.05;67.85;98107.34;5068595;28;20190;-39
2023/02/18 19:11:31;;;;;;;12.82;5.65;;;;;;;-3.91;68.22;98109.84;5066728;28;20506;-37
2023/02/18 19:13:57;;;;;;;8.90;4.78;;;;;;;-3.89;67.42;98100.56;5075489;28;20040;-37
2023/02/18 19:16:38;;;;;;;11.43;5.15;;;;;;;-3.92;67.47;98103.09;5094547;28;20040;-37
2023/02/18 19:19:04;;;;;;;12.30;5.72;;;;;;;-3.94;67.16;98100.56;5073214;28;20123;-36
2023/02/18 19:21:30;;;;;;;13.60;5.38;;;;;;;-3.89;67.21;98098.88;5076658;28;20143;-37
2023/02/18 19:23:56;;;;;;;13.27;5.38;;;;;;;-3.92;67.35;98101.41;5075296;28;20090;-38
2023/02/18 19:26:23;;;;;;;11.90;5.72;;;;;;;-4.03;66.97;98100.56;5070066;28;20044;-38
2023/02/18 19:28:49;;;;;;;11.45;5.90;;;;;;;-4.02;66.85;98099.72;5077963;28;20047;-38
2023/02/18 19:31:14;;;;;;;13.80;5.80;;;;;;;-3.99;67.36;98092.13;5072565;28;20044;-37
2023/02/18 19:33:44;;;;;;;11.48;4.72;;;;;;;-4.05;67.08;98101.44;5072200;28;20259;-40
2023/02/18 19:36:10;;;;;;;12.88;5.95;;;;;;;-4.12;67.18;98100.59;5073672;28;20058;-37
2023/02/18 19:38:37;;;;;;;14.10;5.80;;;;;;;-4.09;66.39;98094.69;5083918;28;20036;-37
2023/02/18 19:41:08;;;;;;;13.00;6.40;;;;;;;-4.09;66.83;98095.53;5054549;28;20076;-36
2023/02/18 19:43:34;;;;;;;11.70;5.53;;;;;;;-4.13;66.90;98077.75;5066553;28;20036;-35
2023/02/18 19:46:10;;;;;;;14.52;6.60;;;;;;;-4.10;66.75;98083.69;5085842;28;20040;-36
2023/02/18 19:48:36;;;;;;;13.48;6.15;;;;;;;-4.09;66.33;98085.38;5096282;28;20043;-37
2023/02/18 19:51:04;;;;;;;15.48;6.63;;;;;;;-4.07;66.64;98081.13;5078079;28;20044;-35
2023/02/18 19:53:33;;;;;;;11.85;5.63;;;;;;;-4.10;67.04;98086.22;5074377;28;20072;-36
2023/02/18 19:56:06;;;;;;;13.27;5.43;;;;;;;-4.12;67.44;98089.59;5074953;28;20035;-36
2023/02/18 19:58:33;;;;;;;11.45;5.47;;;;;;;-4.13;66.64;98082.81;5084041;28;20117;-37
2023/02/18 20:00:59;;;;;;;14.38;6.78;;;;;;;-4.11;67.22;98089.59;5062878;28;20043;-37
2023/02/18 20:03:25;;;;;;;16.85;7.07;;;;;;;-4.10;66.58;98090.44;5072719;28;20404;-36
2023/02/18 20:05:51;;;;;;;10.85;5.55;;;;;;;-4.11;67.14;98073.53;5073393;28;20674;-38
2023/02/18 20:08:17;;;;;;;14.38;5.20;;;;;;;-4.11;66.99;98076.91;5076472;28;20051;-40
2023/02/18 20:10:42;;;;;;;10.80;5.75;;;;;;;-4.11;67.19;98071.84;5066791;28;20531;-38
2023/02/18 20:13:10;;;;;;;11.38;5.68;;;;;;;-4.16;67.29;98065.09;5077027;28;20542;-38
2023/02/18 20:15:40;;;;;;;15.43;6.35;;;;;;;-4.12;67.18;98077.75;5077259;28;22131;-38
2023/02/18 20:18:06;;;;;;;9.15;5.07;;;;;;;-4.13;67.80;98073.53;5075782;28;20036;-37
2023/02/18 20:20:32;;;;;;;14.25;6.13;;;;;;;-4.15;67.50;98070.16;5073238;28;20301;-37
2023/02/18 20:22:58;;;;;;;15.27;6.28;;;;;;;-4.38;67.32;98024.53;5075985;28;20044;-37
2023/02/18 20:25:25;;;;;;;11.57;5.80;;;;;;;-4.10;67.83;98067.63;5079580;28;20122;-37
2023/02/18 20:27:51;;;;;;;9.27;4.65;;;;;;;-4.43;67.47;98036.38;5075068;28;20059;-37
2023/02/18 20:30:17;;;;;;;13.48;5.75;;;;;;;-4.27;67.41;98065.09;5076479;28;20707;-36
2023/02/18 20:32:43;;;;;;;17.63;5.90;;;;;;;-4.44;67.15;98038.91;5077679;28;20063;-35
2023/02/18 20:35:09;;;;;;;11.98;5.22;;;;;;;-4.69;67.85;98007.69;5081331;28;20036;-35
2023/02/18 20:37:35;;;;;;;11.55;6.10;;;;;;;-4.30;67.47;98062.59;5073530;28;20039;-37
2023/02/18 20:40:01;;;;;;;21.98;9.60;;;;;;;-4.56;68.01;98016.13;5080610;28;20088;-36
2023/02/18 20:42:27;;;;;;;19.85;8.40;;;;;;;-4.31;68.28;98058.34;5069386;28;20047;-36
2023/02/18 20:44:52;;;;;;;20.27;8.82;;;;;;;-4.30;68.44;98044.84;5076596;28;20044;-36
2023/02/18 20:47:18;;;;;;;22.95;7.50;;;;;;;-4.25;68.67;98039.75;5072363;28;20044;-38
2023/02/18 20:49:45;;;;;;;16.70;6.32;;;;;;;-4.30;68.45;98052.44;5067674;28;20036;-36
2023/02/18 20:52:11;;;;;;;15.77;6.93;;;;;;;-4.24;68.71;98047.38;5067557;28;20032;-36
2023/02/18 20:54:38;;;;;;;9.27;4.25;;;;;;;-4.20;68.64;98046.50;5071207;28;20044;-37
2023/02/18 20:57:04;;;;;;;10.10;4.53;;;;;;;-4.27;68.25;98044.81;5078992;28;20043;-36
2023/02/18 20:59:32;;;;;;;9.75;4.78;;;;;;;-4.32;69.08;98041.44;5073382;28;20447;-36
2023/02/18 21:01:57;;;;;;;12.13;5.47;;;;;;;-4.36;69.18;98027.94;5081145;28;20135;-36
2023/02/18 21:04:24;;;;;;;15.90;6.18;;;;;;;-4.22;68.46;98037.19;5074483;28;20123;-43
2023/02/18 21:06:50;;;;;;;15.55;6.75;;;;;;;-4.40;68.66;98011.03;5070944;28;20044;-35
2023/02/18 21:09:16;;;;;;;12.80;6.35;;;;;;;-4.19;68.17;98042.28;5049050;28;20055;-36
2023/02/18 21:11:42;;;;;;;12.00;5.72;;;;;;;-4.24;68.58;98022.00;5068062;28;20048;-36
2023/02/18 21:14:08;;;;;;;12.30;5.05;;;;;;;-4.12;68.51;98021.94;5056888;28;20066;-36
2023/02/18 21:16:37;;;;;;;16.27;6.75;;;;;;;-4.10;68.47;98030.41;5072550;28;20040;-37
2023/02/18 21:19:04;;;;;;;12.57;6.00;;;;;;;-4.10;68.32;98021.94;5067611;28;20055;-36
2023/02/18 21:21:30;;;;;;;16.58;6.43;;;;;;;-4.05;67.98;98015.16;5067075;28;20295;-35
2023/02/18 21:23:56;;;;;;;19.30;8.35;;;;;;;-3.98;68.39;98019.38;5068159;28;20469;-36
2023/02/18 21:26:24;;;;;;;10.60;5.50;;;;;;;-4.02;68.30;98013.44;5069808;28;20048;-43
2023/02/18 21:28:52;;;;;;;14.18;6.40;;;;;;;-4.09;68.07;98006.72;5068966;28;20040;-35
2023/02/18 21:31:24;;;;;;;16.58;6.78;;;;;;;-4.02;68.00;98007.53;5065743;28;20827;-35
2023/02/18 21:33:50;;;;;;;15.60;6.07;;;;;;;-4.01;67.72;98010.06;5075107;28;20043;-36
2023/02/18 21:36:17;;;;;;;13.30;6.22;;;;;;;-4.15;67.89;97975.44;5086542;28;20529;-35
2023/02/18 21:38:43;;;;;;;11.25;4.85;;;;;;;-3.99;67.93;98008.38;5094316;28;20044;-35
2023/02/18 21:41:12;;;;;;;14.43;5.80;;;;;;;-4.02;68.16;98003.31;5079078;28;20150;-38
2023/02/18 21:43:38;;;;;;;11.93;5.35;;;;;;;-4.04;67.91;97987.25;5094161;28;20062;-36
2023/02/18 21:46:06;;;;;;;10.20;5.05;;;;;;;-4.02;68.23;97989.75;5095630;28;20051;-36
2023/02/18 21:51:55;;;;;;;16.15;6.90;;;;;;;-4.04;67.93;97992.34;5111944;27;20036;-36
2023/02/18 21:54:02;;;;;;;13.02;6.53;;;;;;;-4.13;67.44;97994.88;5091145;28;20098;-38
2023/02/18 21:56:28;;;;;;;15.25;6.07;;;;;;;-4.17;68.06;97984.75;5084307;28;20101;-36
2023/02/18 21:58:54;;;;;;;17.95;7.00;;;;;;;-4.11;67.86;97998.25;5083900;28;20039;-36
2023/02/18 22:01:20;;;;;;;16.70;7.40;;;;;;;-4.14;67.80;97983.06;5086758;28;20050;-36
2023/02/18 22:03:46;;;;;;;11.02;5.03;;;;;;;-4.00;67.68;97991.47;5089028;28;20038;-37
2023/02/18 22:06:11;;;;;;;11.27;4.63;;;;;;;-4.06;67.49;97996.56;5087873;28;20050;-37
2023/02/18 22:08:37;;;;;;;19.17;7.15;;;;;;;-4.36;67.65;97944.25;5067516;28;20249;-35
2023/02/18 22:11:04;;;;;;;11.10;5.22;;;;;;;-4.13;67.63;97989.81;5085078;28;20477;-36
2023/02/18 22:13:30;;;;;;;14.95;6.65;;;;;;;-4.09;67.69;97986.44;5082501;28;20059;-35
2023/02/18 22:15:56;;;;;;;17.38;6.85;;;;;;;-4.15;67.27;97983.06;5067246;28;20067;-37
2023/02/18 22:18:22;;;;;;;13.20;5.70;;;;;;;-4.10;67.30;97989.81;5080540;28;20047;-36
2023/02/18 22:20:49;;;;;;;15.75;6.35;;;;;;;-4.31;67.57;97955.22;5081254;28;20134;-36
2023/02/18 22:23:16;;;;;;;13.45;6.22;;;;;;;-4.39;67.71;97941.69;5087431;28;20035;-35
2023/02/18 22:25:43;;;;;;;14.10;6.38;;;;;;;-4.36;67.70;97941.72;5076255;28;20146;-35
2023/02/18 22:28:09;;;;;;;13.95;5.75;;;;;;;-4.17;68.20;97974.59;5066697;28;20397;-35
2023/02/18 22:30:38;;;;;;;12.63;5.75;;;;;;;-4.33;67.33;97946.75;5086689;28;20493;-38
2023/02/18 22:33:04;;;;;;;17.17;6.88;;;;;;;-4.13;67.53;97976.28;5083893;28;20032;-36
2023/02/18 22:35:30;;;;;;;12.57;6.30;;;;;;;-4.17;67.37;97972.91;5082669;28;20055;-36
2023/02/18 22:37:55;;;;;;;14.02;5.53;;;;;;;-4.33;67.77;97940.84;5053844;28;20043;-37
2023/02/18 22:40:21;;;;;;;15.30;5.55;;;;;;;-4.15;67.40;97962.78;5080152;28;20093;-35
2023/02/18 22:42:47;;;;;;;13.02;5.45;;;;;;;-4.39;67.66;97936.63;5088421;28;20538;-35
2023/02/18 22:45:13;;;;;;;13.68;5.97;;;;;;;-4.15;67.94;97966.16;5083002;28;20087;-37
2023/02/18 22:47:39;;;;;;;11.35;6.25;;;;;;;-4.19;67.90;97968.72;5068076;28;20206;-36
2023/02/18 22:50:05;;;;;;;11.85;5.82;;;;;;;-4.20;67.38;97956.88;5110653;27;20082;-35
2023/02/18 22:52:31;;;;;;;14.00;5.82;;;;;;;-4.16;67.10;97968.69;5085913;28;20067;-36
2023/02/18 22:54:57;;;;;;;11.57;5.50;;;;;;;-4.27;67.36;97950.97;5089447;28;20044;-36
2023/02/18 22:57:22;;;;;;;13.70;5.88;;;;;;;-4.29;67.52;97963.66;5088477;28;20032;-37
2023/02/18 22:59:48;;;;;;;11.45;5.28;;;;;;;-4.32;67.41;97966.19;5088526;28;20071;-35
2023/02/18 23:02:14;;;;;;;13.02;5.32;;;;;;;-4.32;66.79;97966.19;5089592;28;20423;-35
2023/02/18 23:04:40;;;;;;;10.35;5.60;;;;;;;-4.34;67.07;97972.13;5084030;28;20048;-35
2023/02/18 23:07:06;;;;;;;12.10;5.25;;;;;;;-4.33;66.87;97979.72;5088561;28;20043;-36
2023/02/18 23:09:32;;;;;;;13.63;5.95;;;;;;;-4.36;67.13;97964.53;5087770;28;20036;-36
2023/02/18 23:11:58;;;;;;;14.38;6.15;;;;;;;-4.29;66.97;97968.72;5083086;28;20069;-35
2023/02/18 23:14:26;;;;;;;12.48;5.22;;;;;;;-4.27;66.81;97972.09;5083900;28;20044;-35
2023/02/18 23:17:12;;;;;;;11.82;4.97;;;;;;;-4.27;66.86;97972.09;5079198;28;20032;-36
2023/02/18 23:19:48;;;;;;;15.23;5.68;;;;;;;-4.28;66.40;97960.25;5087952;28;20104;-36
2023/02/18 23:22:34;;;;;;;14.73;5.95;;;;;;;-4.23;66.59;97969.53;5084021;28;20044;-35
2023/02/18 23:25:01;;;;;;;11.35;5.57;;;;;;;-4.14;66.67;97977.16;5086739;28;20082;-35
2023/02/18 23:27:29;;;;;;;13.57;6.25;;;;;;;-4.27;66.26;97966.19;5071702;28;20040;-36
2023/02/18 23:29:56;;;;;;;12.43;5.55;;;;;;;-4.39;66.93;97966.22;5088200;28;20134;-35
2023/02/18 23:32:22;;;;;;;13.30;6.20;;;;;;;-4.31;66.77;97972.13;5089619;28;20036;-36
2023/02/18 23:34:51;;;;;;;11.55;5.78;;;;;;;-4.23;67.29;97967.84;5089776;28;20599;-40
2023/02/18 23:37:17;;;;;;;13.05;5.60;;;;;;;-4.28;67.78;97972.09;5098621;28;20582;-36
2023/02/18 23:39:44;;;;;;;12.02;5.88;;;;;;;-4.28;67.07;97959.41;5072507;28;20577;-35
2023/02/18 23:42:11;;;;;;;14.10;6.53;;;;;;;-4.20;67.60;97956.88;5084634;28;20685;-34
2023/02/18 23:44:37;;;;;;;11.90;5.40;;;;;;;-4.14;67.43;97956.84;5084810;28;20040;-36
2023/02/18 23:47:03;;;;;;;12.52;5.63;;;;;;;-4.10;67.28;97939.06;5052342;28;20047;-36
2023/02/18 23:49:29;;;;;;;15.38;6.30;;;;;;;-4.08;67.75;97950.03;5080188;28;20483;-35
2023/02/18 23:51:56;;;;;;;13.85;6.07;;;;;;;-4.19;67.61;97943.34;5085808;28;20067;-36
2023/02/18 23:54:23;;;;;;;15.13;7.22;;;;;;;-4.56;68.09;97897.84;5066393;28;20080;-36
2023/02/18 23:56:49;;;;;;;16.90;6.72;;;;;;;-4.44;68.07;97904.53;5065620;28;20037;-35
2023/02/18 23:59:16;;;;;;;16.13;7.05;;;;;;;-4.10;67.84;97940.75;5077888;28;20093;-36
